Marietta, GA

11:06 AM EDT on July 30, 2016 (GMT -0400)
MesoWest | | Change Station

Elev 1062 ft 33.97 °N, 84.53 °W | Updated 26 minutes ago

Mostly Cloudy
Mostly Cloudy
82 °F
Feels Like 87 °F
N
9
Wind Variable Wind from NNW
Gusts 13.0 mph

Today
High -- | Low -- °F
--% Chance of Precip.
Yesterday
High -- | Low -- °F
Precip. -- in
Pressure 30.04 in
Visibility 10.0 miles
Clouds Mostly Cloudy 2000 ft
Heat Index 87 °F
Dew Point 73 °F
Humidity 74%
Rainfall in
Snow Depth Not available.
6:48 AM 8:40 PM
Waning Crescent, 13% visible
METAR KMGE 301458Z 26011KT 10SM BKN020 28/23 A3007 RMK AO2A SLP172 T02780233 50010 $
Pressure 30.04 in
Visibility 10.0 miles
Clouds Mostly Cloudy 2000 ft
Heat Index 87 °F
Dew Point 73 °F
Humidity 74%
Rainfall in
Snow Depth Not available.
6:48 AM 8:40 PM
Waning Crescent, 13% visible
METAR KMGE 301458Z 26011KT 10SM BKN020 28/23 A3007 RMK AO2A SLP172 T02780233 50010 $

10-Day Weather Forecast

Almanac

Astronomy

Jul. 30, 2016 Rise Set
Actual Time
Civil Twilight
Nautical Twilight
Astronomical Twilight
Moon
Length of Visible Light
Length of Day
Tomorrow will be .
, % of the Moon is Illuminated

Today's Extremes

State Highs State Lows

Community

WunderPhotos

Upload Photos

1,928,568 photos uploaded!

WunderBlog® & News

Nearby

Air Quality

  Air Quality AQ Index Pollutant
Not available.

Snow Depth

Station Depth Elevation

Earthquake Activity

City Distance Mag. Time & Date
Minimum magnitude displayed is 2.5.

Coastal Water Temperatures

Place Temperature

Stations

Nearby Weather Stations

Station Location Temp. Windchill Dew Point Humidity Wind Precip. Elev Updated Type
                   

Watches & Warnings

There are currently no watches in effect.